Whitney, Pennsylvania
Current Conditions -  °F | °C
As of 7:50 PM on Tuesday 27 Jan 2015 (Local Time) from KLBE Reporting Station
Haze Haze  
Wind Chill:   Ceiling: 1600
Heat Index: 19°   Visibility: 6mi
Dew Point: 16°   Wind: 9mph
Humidity: 86%   Direction: 290°WNW
Pressure: 30.05"   Gusts: NA
Location:  40.25°N, 79.41°W
Report Text: KLBE 280050Z 29008KT 6SM BR OVC016 M07/M09 A3005
Loading
Personal Weather Stations






























Interactive Weather Map New forecast layout! Learn more

10-Day Weather Forecast

Advertisements
Track Severe Weather on mobile